Time;durP1;ratioP1;P1;durP2;ratioP2;P2;SDS_P1;SDS_P2;PMS_P1;PMS_P2;Temp;Humidity;BMP_temperature;BMP_pressure;BME280_temperature;BME280_humidity;BME280_pressure;Samples;Min_cycle;Max_cycle;Signal;HPM_P1;HPM_P2
2022/06/03 00:01:00;;;;;;;;;;;22.70;67.90;;;;;;5077404;28;20314;-64
2022/06/03 00:03:25;;;;;;;;;;;22.70;67.80;;;;;;5077173;28;19923;-63
2022/06/03 00:06:00;;;;;;;;;;;22.80;67.80;;;;;;5077258;28;19909;-63
2022/06/03 00:08:25;;;;;;;;;;;22.80;67.80;;;;;;5083754;28;19909;-65
2022/06/03 00:10:57;;;;;;;;;;;22.90;67.20;;;;;;5089254;28;19930;-62
2022/06/03 00:13:39;;;;;;;;;;;23.00;67.30;;;;;;5090565;28;19930;-64
2022/06/03 00:16:11;;;;;;;;;;;23.00;67.10;;;;;;5085702;28;19908;-63
2022/06/03 00:18:48;;;;;;;;;;;23.10;67.10;;;;;;5091239;28;19912;-67
2022/06/03 00:21:28;;;;;;;;;;;23.00;67.10;;;;;;5078668;28;19979;-63
2022/06/03 00:24:03;;;;;;;;;;;23.00;66.70;;;;;;5076609;28;19917;-64
2022/06/03 00:26:32;;;;;;;;;;;23.00;66.90;;;;;;5076795;28;20271;-63
2022/06/03 00:29:16;;;;;;;;;;;23.00;66.50;;;;;;5076646;28;19908;-64
2022/06/03 00:31:59;;;;;;;;;;;23.10;66.50;;;;;;5076553;28;19913;-65
2022/06/03 00:34:31;;;;;;;;;;;23.00;66.60;;;;;;5076541;28;20280;-63
2022/06/03 00:36:57;;;;;;;;;;;23.00;66.70;;;;;;5076569;28;20081;-63
2022/06/03 00:39:22;;;;;;;;;;;23.00;66.30;;;;;;5076363;28;19916;-64
2022/06/03 00:41:48;;;;;;;;;;;23.10;65.80;;;;;;5075883;28;19920;-64
2022/06/03 00:44:32;;;;;;;;;;;23.10;65.80;;;;;;5075897;28;20414;-63
2022/06/03 00:47:05;;;;;;;;;;;23.10;65.40;;;;;;5076045;28;19919;-65
2022/06/03 00:49:49;;;;;;;;;;;23.00;65.60;;;;;;5076224;28;20383;-65
2022/06/03 00:52:18;;;;;;;;;;;23.00;66.40;;;;;;5076185;28;20440;-64
2022/06/03 00:54:51;;;;;;;;;;;22.90;65.50;;;;;;5076111;28;19909;-66
2022/06/03 00:57:32;;;;;;;;;;;22.90;65.70;;;;;;5076009;28;19912;-65
2022/06/03 01:00:01;;;;;;;;;;;23.00;65.60;;;;;;5075799;28;20379;-62
2022/06/03 01:02:44;;;;;;;;;;;22.90;65.30;;;;;;5075724;28;19978;-65
2022/06/03 01:05:29;;;;;;;;;;;22.90;65.70;;;;;;5075742;28;19952;-63
2022/06/03 01:08:13;;;;;;;;;;;23.00;65.30;;;;;;5075699;28;19912;-64
2022/06/03 01:10:57;;;;;;;;;;;22.90;65.40;;;;;;5076094;28;19915;-65
2022/06/03 01:13:39;;;;;;;;;;;22.90;65.20;;;;;;5075784;28;19909;-65
2022/06/03 01:16:07;;;;;;;;;;;22.90;65.20;;;;;;5075508;28;19915;-65
2022/06/03 01:18:56;;;;;;;;;;;22.90;65.20;;;;;;5075608;28;19908;-65
2022/06/03 01:21:35;;;;;;;;;;;22.90;65.10;;;;;;5072419;28;19931;-64
2022/06/03 01:24:06;;;;;;;;;;;22.80;65.30;;;;;;5075307;28;19917;-66
2022/06/03 01:26:50;;;;;;;;;;;22.70;65.20;;;;;;5075483;28;20261;-64
2022/06/03 01:29:16;;;;;;;;;;;22.70;65.70;;;;;;5074418;28;19908;-65
2022/06/03 01:32:00;;;;;;;;;;;22.70;65.50;;;;;;5075422;28;19922;-64
2022/06/03 01:34:44;;;;;;;;;;;22.70;65.20;;;;;;5074187;28;19908;-66
2022/06/03 01:37:36;;;;;;;;;;;22.70;65.70;;;;;;5073972;28;19915;-63
2022/06/03 01:40:01;;;;;;;;;;;22.60;65.70;;;;;;5066435;28;19908;-65
2022/06/03 01:42:46;;;;;;;;;;;22.70;65.50;;;;;;5074839;28;19975;-65
2022/06/03 01:45:14;;;;;;;;;;;22.70;65.20;;;;;;5074894;28;19954;-65
2022/06/03 01:48:02;;;;;;;;;;;22.70;65.30;;;;;;5074941;28;19905;-64
2022/06/03 01:50:46;;;;;;;;;;;22.60;65.60;;;;;;5064873;28;19915;-64
2022/06/03 01:53:31;;;;;;;;;;;22.60;65.50;;;;;;5074735;28;19908;-64
2022/06/03 01:56:15;;;;;;;;;;;22.60;65.10;;;;;;5074798;28;19931;-65
2022/06/03 01:58:59;;;;;;;;;;;22.60;65.30;;;;;;5074907;28;19995;-64
2022/06/03 02:01:43;;;;;;;;;;;22.50;65.70;;;;;;5074668;28;20429;-65
2022/06/03 02:04:26;;;;;;;;;;;22.50;65.60;;;;;;5074656;28;19975;-64
2022/06/03 02:07:04;;;;;;;;;;;22.40;65.70;;;;;;5074643;28;19951;-64
2022/06/03 02:09:38;;;;;;;;;;;22.50;65.60;;;;;;5074533;28;19912;-67
2022/06/03 02:12:22;;;;;;;;;;;22.50;65.20;;;;;;5074605;28;19908;-67
2022/06/03 02:14:48;;;;;;;;;;;22.50;65.10;;;;;;5073083;28;19961;-64
2022/06/03 02:17:19;;;;;;;;;;;22.40;65.60;;;;;;5074597;28;19908;-63
2022/06/03 02:19:57;;;;;;;;;;;22.40;65.80;;;;;;5074241;28;19909;-63
2022/06/03 02:22:25;;;;;;;;;;;22.40;65.70;;;;;;5074278;28;19916;-63
2022/06/03 02:25:03;;;;;;;;;;;22.40;65.80;;;;;;5074156;28;20257;-64
2022/06/03 02:27:34;;;;;;;;;;;22.40;65.70;;;;;;5074528;28;19950;-64
2022/06/03 02:30:27;;;;;;;;;;;22.50;65.70;;;;;;5074431;28;19908;-64
2022/06/03 02:32:58;;;;;;;;;;;22.40;65.70;;;;;;5074422;28;19967;-65
2022/06/03 02:35:42;;;;;;;;;;;22.30;66.10;;;;;;5074299;28;19991;-65
2022/06/03 02:38:26;;;;;;;;;;;22.30;66.30;;;;;;5074132;28;19909;-62
2022/06/03 02:41:10;;;;;;;;;;;22.40;65.90;;;;;;5073976;28;19927;-63
2022/06/03 02:43:48;;;;;;;;;;;22.50;65.60;;;;;;5073785;28;19939;-63
2022/06/03 02:46:13;;;;;;;;;;;22.40;65.60;;;;;;5074000;28;19909;-63
2022/06/03 02:48:39;;;;;;;;;;;22.40;65.80;;;;;;5074538;28;20280;-62
2022/06/03 02:51:18;;;;;;;;;;;22.30;66.00;;;;;;5074037;28;19915;-63
2022/06/03 02:54:08;;;;;;;;;;;22.20;66.30;;;;;;5073648;28;19908;-63
2022/06/03 02:56:33;;;;;;;;;;;22.30;66.40;;;;;;5074195;28;19916;-65
2022/06/03 02:59:17;;;;;;;;;;;22.20;66.60;;;;;;5074231;28;19908;-76
2022/06/03 03:01:51;;;;;;;;;;;22.20;66.60;;;;;;5074064;28;19915;-63
2022/06/03 03:04:35;;;;;;;;;;;22.20;66.30;;;;;;5073540;28;20031;-73
2022/06/03 03:07:19;;;;;;;;;;;22.10;66.60;;;;;;5073554;28;19908;-65
2022/06/03 03:10:03;;;;;;;;;;;22.10;66.90;;;;;;5074079;28;19908;-63
2022/06/03 03:12:47;;;;;;;;;;;22.10;66.70;;;;;;5073562;28;19913;-65
2022/06/03 03:15:22;;;;;;;;;;;22.10;66.60;;;;;;5073949;28;19908;-71
2022/06/03 03:18:06;;;;;;;;;;;22.10;66.30;;;;;;5073927;28;19930;-74
2022/06/03 03:20:32;;;;;;;;;;;22.10;66.40;;;;;;5073826;28;19909;-70
2022/06/03 03:23:03;;;;;;;;;;;22.20;66.10;;;;;;5073619;28;19923;-75
2022/06/03 03:25:34;;;;;;;;;;;22.20;65.70;;;;;;5073885;28;20004;-69
2022/06/03 03:28:18;;;;;;;;;;;22.20;65.80;;;;;;5073578;28;19963;-69
2022/06/03 03:30:43;;;;;;;;;;;22.20;65.60;;;;;;5073619;28;19908;-65
2022/06/03 03:33:21;;;;;;;;;;;22.20;65.40;;;;;;5073538;28;19935;-69
2022/06/03 03:35:47;;;;;;;;;;;22.30;65.30;;;;;;5073546;28;19916;-71
2022/06/03 03:38:21;;;;;;;;;;;22.30;65.10;;;;;;5073778;28;20261;-70
2022/06/03 03:40:59;;;;;;;;;;;22.30;65.20;;;;;;5073306;28;19969;-68
2022/06/03 03:43:28;;;;;;;;;;;22.30;65.10;;;;;;5073342;28;19916;-77
2022/06/03 03:46:09;;;;;;;;;;;22.30;64.90;;;;;;5073364;28;20344;-66
2022/06/03 03:48:34;;;;;;;;;;;22.30;65.10;;;;;;5073229;28;20272;-71
2022/06/03 03:51:06;;;;;;;;;;;22.30;65.10;;;;;;5073175;28;19908;-68
2022/06/03 03:53:50;;;;;;;;;;;22.30;65.00;;;;;;5073384;28;20324;-65
2022/06/03 03:56:29;;;;;;;;;;;22.40;65.00;;;;;;5073384;28;19915;-63
2022/06/03 03:58:54;;;;;;;;;;;22.40;64.90;;;;;;5073318;28;19940;-66
2022/06/03 04:01:23;;;;;;;;;;;22.30;65.10;;;;;;5073185;28;20305;-65
2022/06/03 04:04:03;;;;;;;;;;;22.40;65.10;;;;;;5073069;28;19971;-69
2022/06/03 04:06:35;;;;;;;;;;;22.40;65.00;;;;;;5073226;28;19908;-64
2022/06/03 04:09:27;;;;;;;;;;;22.30;65.00;;;;;;5073120;28;19908;-64
2022/06/03 04:12:02;;;;;;;;;;;22.30;65.00;;;;;;5073054;28;19931;-64
2022/06/03 04:15:00;;;;;;;;;;;22.40;64.80;;;;;;5073167;28;20360;-64
2022/06/03 04:17:27;;;;;;;;;;;22.40;64.90;;;;;;5061292;28;19916;-64
2022/06/03 04:20:01;;;;;;;;;;;22.40;64.50;;;;;;5078095;28;19908;-64
2022/06/03 04:22:26;;;;;;;;;;;22.50;64.20;;;;;;5077267;28;19917;-64
2022/06/03 04:25:18;;;;;;;;;;;22.60;64.10;;;;;;5078123;28;19915;-66
2022/06/03 04:28:02;;;;;;;;;;;22.60;63.60;;;;;;5072257;28;19954;-63
2022/06/03 04:30:46;;;;;;;;;;;22.70;63.30;;;;;;5078357;28;19908;-64
2022/06/03 04:33:30;;;;;;;;;;;22.70;63.40;;;;;;5077013;28;19916;-63
2022/06/03 04:36:14;;;;;;;;;;;22.80;63.10;;;;;;5076658;28;19995;-69
2022/06/03 04:38:59;;;;;;;;;;;22.80;63.00;;;;;;5076264;28;19914;-69
2022/06/03 04:41:33;;;;;;;;;;;22.80;63.10;;;;;;5076436;28;19928;-76
2022/06/03 04:43:58;;;;;;;;;;;22.90;62.70;;;;;;5076293;28;19943;-65
2022/06/03 04:46:43;;;;;;;;;;;22.90;62.80;;;;;;5076525;28;19908;-71
2022/06/03 04:49:11;;;;;;;;;;;22.90;62.60;;;;;;5077520;28;19908;-70
2022/06/03 04:51:55;;;;;;;;;;;22.90;62.60;;;;;;5076058;28;19917;-77
2022/06/03 04:54:39;;;;;;;;;;;22.90;62.50;;;;;;5076139;28;19908;-63
2022/06/03 04:57:30;;;;;;;;;;;23.00;62.50;;;;;;5075878;28;20394;-65
2022/06/03 05:00:07;;;;;;;;;;;23.00;62.20;;;;;;5075829;28;20272;-66
2022/06/03 05:02:51;;;;;;;;;;;23.00;62.40;;;;;;5076161;28;19917;-64
2022/06/03 05:05:17;;;;;;;;;;;23.00;62.60;;;;;;5075914;28;20284;-65
2022/06/03 05:07:59;;;;;;;;;;;22.90;62.90;;;;;;5076049;28;19908;-65
2022/06/03 05:10:44;;;;;;;;;;;22.90;63.00;;;;;;5074642;28;19916;-71
2022/06/03 05:13:18;;;;;;;;;;;22.90;62.90;;;;;;5075912;28;19908;-64
2022/06/03 05:15:44;;;;;;;;;;;22.90;63.40;;;;;;5075948;28;19909;-67
2022/06/03 05:18:28;;;;;;;;;;;22.80;63.70;;;;;;5075548;28;19931;-68
2022/06/03 05:21:09;;;;;;;;;;;22.80;63.80;;;;;;5075601;28;19969;-63
2022/06/03 05:23:40;;;;;;;;;;;22.80;63.90;;;;;;5075726;28;20261;-67
2022/06/03 05:26:15;;;;;;;;;;;22.80;63.90;;;;;;5075752;28;19947;-64
2022/06/03 05:28:40;;;;;;;;;;;22.90;64.00;;;;;;5074912;28;20324;-64
2022/06/03 05:31:12;;;;;;;;;;;22.90;63.70;;;;;;5075371;28;19915;-64
2022/06/03 05:33:46;;;;;;;;;;;23.00;63.60;;;;;;5075502;28;20358;-62
2022/06/03 05:36:18;;;;;;;;;;;23.10;63.40;;;;;;5075050;28;19934;-63
2022/06/03 05:38:52;;;;;;;;;;;23.20;63.00;;;;;;5075181;28;19955;-61
2022/06/03 05:44:30;;;;;;;;;;;23.60;61.40;;;;;;5075126;28;19962;-63
2022/06/03 05:47:15;;;;;;;;;;;23.80;60.90;;;;;;5074818;28;20014;-63
2022/06/03 05:49:49;;;;;;;;;;;24.00;60.20;;;;;;5074849;28;19908;-63
2022/06/03 05:52:29;;;;;;;;;;;24.00;60.20;;;;;;5075034;28;20352;-63
2022/06/03 05:55:18;;;;;;;;;;;24.10;59.80;;;;;;5074645;28;19915;-63
2022/06/03 05:57:46;;;;;;;;;;;24.20;59.70;;;;;;5071754;28;19909;-63
2022/06/03 06:00:27;;;;;;;;;;;24.40;59.50;;;;;;5075143;28;19966;-63
2022/06/03 06:03:11;;;;;;;;;;;24.40;59.40;;;;;;5074615;28;19916;-64
2022/06/03 06:05:39;;;;;;;;;;;24.60;58.90;;;;;;5074505;28;19974;-66
2022/06/03 06:08:23;;;;;;;;;;;24.50;59.00;;;;;;5075567;28;20333;-65
2022/06/03 06:10:49;;;;;;;;;;;24.40;59.10;;;;;;5074764;28;19909;-64
2022/06/03 06:13:20;;;;;;;;;;;24.50;58.90;;;;;;5074103;28;19916;-61
2022/06/03 06:15:45;;;;;;;;;;;24.50;58.90;;;;;;5074596;28;19916;-62
2022/06/03 06:18:11;;;;;;;;;;;24.80;58.70;;;;;;5073327;28;20280;-61
2022/06/03 06:20:57;;;;;;;;;;;25.00;58.10;;;;;;5074393;28;19915;-62
2022/06/03 06:23:28;;;;;;;;;;;25.20;57.30;;;;;;5074048;28;19962;-60
2022/06/03 06:26:14;;;;;;;;;;;25.20;57.20;;;;;;5074783;28;19908;-60
2022/06/03 06:28:43;;;;;;;;;;;25.30;57.10;;;;;;5070176;28;20337;-58
2022/06/03 06:31:21;;;;;;;;;;;25.30;56.80;;;;;;5074084;28;19995;-58
2022/06/03 06:34:10;;;;;;;;;;;25.30;57.00;;;;;;5074415;28;19915;-63
2022/06/03 06:36:37;;;;;;;;;;;25.50;56.80;;;;;;5072146;28;20299;-66
2022/06/03 06:39:02;;;;;;;;;;;25.60;56.50;;;;;;5073563;28;19913;-61
2022/06/03 06:41:35;;;;;;;;;;;25.80;56.60;;;;;;5072172;28;19920;-60
2022/06/03 06:44:19;;;;;;;;;;;25.80;55.70;;;;;;5073847;28;20253;-65
2022/06/03 06:46:48;;;;;;;;;;;26.00;55.80;;;;;;5073413;28;19909;-60
2022/06/03 06:49:20;;;;;;;;;;;26.10;55.10;;;;;;5073134;28;19912;-58
2022/06/03 06:51:58;;;;;;;;;;;26.20;55.40;;;;;;5073614;28;19916;-63
2022/06/03 06:54:23;;;;;;;;;;;26.30;55.20;;;;;;5073864;28;20283;-59
2022/06/03 06:56:57;;;;;;;;;;;26.40;54.60;;;;;;5073791;28;19909;-59
2022/06/03 06:59:41;;;;;;;;;;;26.50;54.80;;;;;;5073924;28;19908;-61
2022/06/03 07:02:15;;;;;;;;;;;26.70;54.50;;;;;;5073606;28;19919;-70
2022/06/03 07:04:43;;;;;;;;;;;26.70;54.20;;;;;;5073929;28;19927;-64
2022/06/03 07:07:24;;;;;;;;;;;26.70;54.30;;;;;;5073810;28;19908;-67
2022/06/03 07:09:56;;;;;;;;;;;26.80;53.80;;;;;;5073754;28;19943;-69
2022/06/03 07:12:23;;;;;;;;;;;27.00;53.60;;;;;;5073759;28;20352;-64
2022/06/03 07:15:01;;;;;;;;;;;27.00;53.70;;;;;;5073868;28;19934;-73
2022/06/03 07:20:49;;;;;;;;;;;27.00;53.60;;;;;;5073613;28;19916;-58
2022/06/03 07:23:22;;;;;;;;;;;27.30;53.50;;;;;;5073307;28;19947;-60
2022/06/03 07:25:49;;;;;;;;;;;27.40;52.80;;;;;;5072989;28;19935;-58
2022/06/03 07:28:24;;;;;;;;;;;27.60;52.90;;;;;;5073002;28;20318;-60
2022/06/03 07:30:50;;;;;;;;;;;27.70;52.00;;;;;;5073037;28;20343;-58
2022/06/03 07:33:34;;;;;;;;;;;27.80;52.30;;;;;;5072839;28;19948;-61
2022/06/03 07:36:21;;;;;;;;;;;27.90;52.90;;;;;;5072787;28;20364;-61
2022/06/03 07:38:56;;;;;;;;;;;28.10;51.40;;;;;;5072983;28;20283;-62
2022/06/03 07:41:24;;;;;;;;;;;28.30;50.60;;;;;;5072817;28;20347;-61
2022/06/03 07:43:58;;;;;;;;;;;28.40;50.50;;;;;;5073173;28;19920;-61
2022/06/03 07:46:31;;;;;;;;;;;28.60;50.70;;;;;;5073028;28;19954;-60
2022/06/03 07:48:56;;;;;;;;;;;28.70;50.00;;;;;;5073203;28;20264;-63
2022/06/03 07:51:31;;;;;;;;;;;28.80;49.80;;;;;;5072773;28;19915;-64
2022/06/03 07:54:03;;;;;;;;;;;28.80;49.00;;;;;;5076553;28;19909;-61
2022/06/03 07:56:29;;;;;;;;;;;28.90;49.10;;;;;;5074385;28;20257;-62
2022/06/03 07:58:56;;;;;;;;;;;28.90;48.70;;;;;;5076939;28;20414;-63
2022/06/03 08:01:22;;;;;;;;;;;29.00;48.30;;;;;;5076783;28;19909;-66
2022/06/03 08:03:48;;;;;;;;;;;29.00;48.20;;;;;;5076438;28;19959;-62
2022/06/03 08:06:13;;;;;;;;;;;29.00;48.10;;;;;;5076730;28;20284;-70
2022/06/03 08:11:28;;;;;;;;;;;29.00;48.10;;;;;;5077364;28;20007;-63
2022/06/03 08:13:56;;;;;;;;;;;29.00;47.90;;;;;;5076630;28;19972;-64
2022/06/03 08:16:41;;;;;;;;;;;29.00;47.90;;;;;;5076620;28;19909;-62
2022/06/03 08:19:12;;;;;;;;;;;29.10;48.00;;;;;;5076430;28;19919;-63
2022/06/03 08:21:42;;;;;;;;;;;29.20;48.10;;;;;;5076387;28;19908;-62
2022/06/03 08:24:09;;;;;;;;;;;29.20;48.40;;;;;;5076593;28;19967;-61
2022/06/03 08:26:36;;;;;;;;;;;29.30;48.00;;;;;;5076618;28;19908;-62
2022/06/03 08:29:04;;;;;;;;;;;29.40;47.70;;;;;;5076489;28;19908;-63
2022/06/03 08:31:30;;;;;;;;;;;29.50;47.40;;;;;;5076472;28;19909;-68
2022/06/03 08:33:58;;;;;;;;;;;29.60;47.30;;;;;;5076258;28;19908;-65
2022/06/03 08:36:31;;;;;;;;;;;29.60;47.30;;;;;;5076498;28;20375;-66
2022/06/03 08:39:06;;;;;;;;;;;29.60;47.30;;;;;;5076463;28;20268;-62
2022/06/03 08:41:41;;;;;;;;;;;29.50;47.40;;;;;;5075971;28;19920;-66
2022/06/03 08:44:25;;;;;;;;;;;29.40;47.80;;;;;;5081009;28;19923;-62
2022/06/03 08:47:09;;;;;;;;;;;29.30;47.90;;;;;;5082984;28;19908;-63
2022/06/03 08:50:07;;;;;;;;;;;29.20;48.40;;;;;;5076294;28;19908;-69
2022/06/03 08:52:51;;;;;;;;;;;29.20;48.70;;;;;;5053224;28;19909;-63
2022/06/03 08:55:26;;;;;;;;;;;29.20;48.10;;;;;;5074504;28;19909;-66
2022/06/03 08:57:53;;;;;;;;;;;29.20;47.80;;;;;;5075924;28;19916;-63
2022/06/03 09:00:21;;;;;;;;;;;29.20;48.80;;;;;;5076249;28;20067;-64
2022/06/03 09:02:56;;;;;;;;;;;29.30;48.80;;;;;;5075871;28;19916;-68
2022/06/03 09:05:23;;;;;;;;;;;29.30;49.10;;;;;;5075090;28;19912;-68
2022/06/03 09:07:55;;;;;;;;;;;29.40;47.60;;;;;;5076354;28;19987;-66
2022/06/03 09:10:31;;;;;;;;;;;29.40;47.70;;;;;;5076371;28;19909;-66
2022/06/03 09:13:09;;;;;;;;;;;29.40;47.10;;;;;;5077244;28;20365;-64
2022/06/03 09:15:39;;;;;;;;;;;29.30;47.80;;;;;;5078076;28;19908;-67
2022/06/03 09:18:05;;;;;;;;;;;29.30;48.30;;;;;;5078597;28;20007;-69
2022/06/03 09:20:39;;;;;;;;;;;29.30;48.10;;;;;;5078738;28;19908;-71
2022/06/03 09:23:08;;;;;;;;;;;29.30;48.00;;;;;;5083250;28;20356;-65
2022/06/03 09:25:36;;;;;;;;;;;29.20;47.20;;;;;;5087346;28;19948;-67
2022/06/03 09:28:06;;;;;;;;;;;29.20;47.50;;;;;;5083550;28;19916;-66
2022/06/03 09:30:37;;;;;;;;;;;29.10;47.40;;;;;;5079526;28;19930;-64
2022/06/03 09:33:05;;;;;;;;;;;29.10;47.60;;;;;;5076990;28;19915;-65
2022/06/03 09:35:32;;;;;;;;;;;29.10;47.20;;;;;;5075187;28;19942;-64
2022/06/03 09:38:00;;;;;;;;;;;29.10;47.20;;;;;;5075168;28;20279;-64
2022/06/03 09:40:31;;;;;;;;;;;29.10;46.70;;;;;;5074758;28;19916;-63
2022/06/03 09:42:59;;;;;;;;;;;29.20;46.40;;;;;;5075121;28;20387;-63
2022/06/03 09:45:25;;;;;;;;;;;29.10;46.70;;;;;;5075462;28;19908;-63
2022/06/03 09:47:51;;;;;;;;;;;29.20;46.40;;;;;;5075203;28;19943;-63
2022/06/03 09:50:18;;;;;;;;;;;29.20;46.90;;;;;;5075337;28;19912;-64
2022/06/03 09:52:43;;;;;;;;;;;29.20;46.10;;;;;;5074905;28;19913;-64
2022/06/03 09:55:24;;;;;;;;;;;29.10;45.90;;;;;;5075080;28;19908;-63
2022/06/03 09:57:50;;;;;;;;;;;29.10;45.70;;;;;;5074793;28;19915;-64
2022/06/03 10:00:16;;;;;;;;;;;29.10;46.60;;;;;;5075250;28;20267;-61
2022/06/03 10:02:42;;;;;;;;;;;29.10;47.20;;;;;;5075201;28;19920;-65
2022/06/03 10:05:08;;;;;;;;;;;29.00;46.70;;;;;;5075326;28;19954;-63
2022/06/03 10:07:34;;;;;;;;;;;29.00;46.70;;;;;;5074708;28;19909;-61
2022/06/03 10:12:49;;;;;;;;;;;29.00;46.40;;;;;;5075218;28;19955;-69
2022/06/03 10:18:03;;;;;;;;;;;28.90;47.10;;;;;;5074768;28;19962;-64
2022/06/03 10:20:29;;;;;;;;;;;28.80;47.30;;;;;;5074811;28;19953;-64
2022/06/03 10:22:55;;;;;;;;;;;28.90;47.50;;;;;;5074591;28;19924;-65
2022/06/03 10:25:20;;;;;;;;;;;28.80;46.70;;;;;;5074844;28;19909;-62
2022/06/03 10:27:46;;;;;;;;;;;28.80;47.10;;;;;;5074468;28;19912;-63
2022/06/03 10:30:24;;;;;;;;;;;28.80;47.60;;;;;;5074746;28;19950;-67
2022/06/03 10:32:50;;;;;;;;;;;28.90;46.90;;;;;;5074161;28;19923;-62
2022/06/03 10:35:17;;;;;;;;;;;28.90;46.80;;;;;;5074540;28;19909;-63
2022/06/03 10:37:46;;;;;;;;;;;28.90;47.60;;;;;;5074159;28;19915;-64
2022/06/03 10:40:12;;;;;;;;;;;28.90;47.00;;;;;;5074222;28;19947;-63
2022/06/03 10:42:40;;;;;;;;;;;28.90;47.30;;;;;;5074248;28;19920;-67
2022/06/03 10:45:08;;;;;;;;;;;28.90;47.30;;;;;;5073828;28;20383;-67
2022/06/03 10:47:43;;;;;;;;;;;28.90;47.50;;;;;;5072878;28;20007;-67
2022/06/03 10:50:29;;;;;;;;;;;28.90;47.80;;;;;;5074144;28;19909;-71
2022/06/03 11:01:29;;;;;;;;;;;29.20;47.70;;;;;;5073974;28;19934;-63
2022/06/03 11:03:56;;;;;;;;;;;29.20;46.90;;;;;;5073544;28;19923;-67
2022/06/03 11:06:25;;;;;;;;;;;29.20;47.00;;;;;;5073312;28;19984;-73
2022/06/03 11:08:59;;;;;;;;;;;29.20;46.20;;;;;;5073344;28;20280;-69
2022/06/03 11:11:32;;;;;;;;;;;29.20;47.10;;;;;;5071137;28;20016;-65
2022/06/03 11:14:18;;;;;;;;;;;29.10;47.80;;;;;;5073200;28;19991;-65
2022/06/03 11:16:48;;;;;;;;;;;29.10;47.80;;;;;;5065621;28;19912;-65
2022/06/03 11:19:17;;;;;;;;;;;29.20;47.20;;;;;;5072933;28;19909;-64
2022/06/03 11:21:43;;;;;;;;;;;29.10;47.10;;;;;;5073113;28;20276;-65
2022/06/03 11:24:09;;;;;;;;;;;29.10;48.10;;;;;;5072965;28;19924;-62
2022/06/03 11:26:37;;;;;;;;;;;29.10;48.30;;;;;;5073192;28;19908;-62
2022/06/03 11:29:05;;;;;;;;;;;29.10;47.70;;;;;;5073553;28;19995;-72
2022/06/03 11:31:33;;;;;;;;;;;29.10;47.90;;;;;;5058432;28;19909;-71
2022/06/03 11:34:08;;;;;;;;;;;29.10;47.60;;;;;;5077167;28;19962;-78
2022/06/03 11:36:36;;;;;;;;;;;29.10;47.70;;;;;;5076951;28;19915;-67
2022/06/03 11:39:08;;;;;;;;;;;29.10;48.50;;;;;;5062609;28;19908;-61
2022/06/03 11:41:44;;;;;;;;;;;29.10;48.20;;;;;;5076743;28;20038;-64
2022/06/03 11:44:19;;;;;;;;;;;29.10;48.90;;;;;;5077102;28;19927;-61
2022/06/03 11:46:57;;;;;;;;;;;29.00;49.00;;;;;;5076888;28;20352;-63
2022/06/03 11:49:23;;;;;;;;;;;29.00;48.70;;;;;;5062468;28;20013;-64
2022/06/03 11:51:50;;;;;;;;;;;29.10;49.20;;;;;;5076677;28;19912;-64
2022/06/03 11:54:17;;;;;;;;;;;29.00;49.10;;;;;;5076730;28;19912;-59
2022/06/03 11:56:44;;;;;;;;;;;28.90;49.90;;;;;;5076453;28;19962;-61
2022/06/03 11:59:18;;;;;;;;;;;29.00;49.40;;;;;;5076672;28;19909;-63
2022/06/03 12:01:56;;;;;;;;;;;29.00;49.80;;;;;;5076618;28;19909;-64
2022/06/03 12:04:27;;;;;;;;;;;28.90;49.50;;;;;;5076162;28;19940;-64
2022/06/03 12:07:05;;;;;;;;;;;28.90;49.60;;;;;;5076315;28;19915;-64
2022/06/03 12:09:40;;;;;;;;;;;28.90;48.90;;;;;;5076174;28;19908;-76
2022/06/03 12:15:29;;;;;;;;;;;29.00;50.00;;;;;;5076321;28;19916;-75
2022/06/03 12:17:56;;;;;;;;;;;28.90;50.40;;;;;;5076146;28;19908;-73
2022/06/03 12:20:30;;;;;;;;;;;28.90;50.80;;;;;;5076340;28;20340;-76
2022/06/03 12:22:56;;;;;;;;;;;29.00;50.90;;;;;;5075835;28;20380;-75
2022/06/03 12:25:41;;;;;;;;;;;29.00;50.90;;;;;;5075912;28;19955;-72
2022/06/03 12:28:19;;;;;;;;;;;28.90;50.90;;;;;;5076297;28;19942;-75
2022/06/03 12:30:48;;;;;;;;;;;28.90;50.90;;;;;;5076029;28;20263;-67
2022/06/03 12:33:33;;;;;;;;;;;28.90;50.40;;;;;;5075729;28;19971;-68
2022/06/03 12:36:02;;;;;;;;;;;28.80;50.80;;;;;;5075813;28;20356;-69
2022/06/03 12:38:31;;;;;;;;;;;28.80;50.80;;;;;;5074498;28;20275;-69
2022/06/03 12:40:57;;;;;;;;;;;28.80;50.60;;;;;;5075629;28;19924;-71
2022/06/03 12:43:23;;;;;;;;;;;28.80;51.10;;;;;;5075532;28;20354;-71
2022/06/03 12:45:59;;;;;;;;;;;28.80;51.20;;;;;;5075846;28;19912;-76
2022/06/03 12:48:35;;;;;;;;;;;28.80;51.10;;;;;;5075715;28;19909;-77
2022/06/03 12:51:19;;;;;;;;;;;28.80;51.10;;;;;;5075747;28;20275;-75
2022/06/03 12:53:46;;;;;;;;;;;28.80;51.10;;;;;;5075683;28;19908;-72
2022/06/03 12:56:23;;;;;;;;;;;28.80;51.30;;;;;;5075548;28;19908;-70
2022/06/03 12:58:54;;;;;;;;;;;28.70;51.10;;;;;;5075347;28;19913;-67
2022/06/03 13:01:29;;;;;;;;;;;28.70;51.30;;;;;;5075347;28;19916;-72
2022/06/03 13:03:54;;;;;;;;;;;28.70;51.20;;;;;;5075745;28;20284;-70
2022/06/03 13:06:25;;;;;;;;;;;28.70;51.20;;;;;;5075949;28;19909;-65
2022/06/03 13:11:42;;;;;;;;;;;28.70;51.60;;;;;;5075774;28;19961;-65
2022/06/03 13:14:14;;;;;;;;;;;28.60;50.70;;;;;;5075742;28;19995;-69
2022/06/03 13:16:41;;;;;;;;;;;28.60;51.00;;;;;;5075548;28;19948;-66
2022/06/03 13:19:18;;;;;;;;;;;28.70;51.40;;;;;;5075524;28;19915;-67
2022/06/03 13:22:02;;;;;;;;;;;28.70;50.40;;;;;;5075575;28;19912;-65
2022/06/03 13:24:34;;;;;;;;;;;28.70;50.20;;;;;;5075434;28;20342;-66
2022/06/03 13:27:19;;;;;;;;;;;28.80;51.20;;;;;;5075463;28;19909;-67
2022/06/03 13:29:51;;;;;;;;;;;28.80;49.90;;;;;;5075486;28;19962;-75
2022/06/03 13:32:18;;;;;;;;;;;28.70;49.50;;;;;;5075132;28;20021;-73
2022/06/03 13:34:44;;;;;;;;;;;28.70;49.40;;;;;;5075480;28;19916;-74
2022/06/03 13:37:30;;;;;;;;;;;28.70;49.50;;;;;;5075053;28;19909;-71
2022/06/03 13:39:55;;;;;;;;;;;28.80;50.50;;;;;;5075388;28;19919;-68
2022/06/03 13:45:18;;;;;;;;;;;28.60;49.40;;;;;;5075091;28;19971;-65
2022/06/03 13:47:46;;;;;;;;;;;28.60;49.30;;;;;;5075209;28;19953;-67
2022/06/03 13:50:17;;;;;;;;;;;28.60;50.30;;;;;;5074719;28;19913;-71
2022/06/03 13:52:54;;;;;;;;;;;28.60;49.30;;;;;;5074470;28;19908;-73
2022/06/03 13:55:32;;;;;;;;;;;28.40;49.50;;;;;;5074816;28;19970;-71
2022/06/03 13:58:15;;;;;;;;;;;28.40;49.50;;;;;;5074322;28;19917;-67
2022/06/03 14:00:54;;;;;;;;;;;28.50;50.10;;;;;;5072458;28;19932;-76
2022/06/03 14:03:40;;;;;;;;;;;28.30;51.70;;;;;;5071716;28;19917;-77
2022/06/03 14:06:26;;;;;;;;;;;28.40;52.10;;;;;;5070520;28;19912;-74
2022/06/03 14:08:55;;;;;;;;;;;28.50;51.70;;;;;;5069495;28;19962;-65
2022/06/03 14:11:28;;;;;;;;;;;28.40;51.30;;;;;;5077156;28;19967;-65
2022/06/03 14:13:53;;;;;;;;;;;28.40;52.10;;;;;;5068681;28;19971;-63
2022/06/03 14:16:25;;;;;;;;;;;28.40;51.00;;;;;;5070897;28;19912;-69
2022/06/03 14:19:09;;;;;;;;;;;28.40;50.00;;;;;;5081047;28;19912;-68
2022/06/03 14:21:38;;;;;;;;;;;28.30;51.60;;;;;;5077459;28;20275;-68
2022/06/03 14:24:16;;;;;;;;;;;28.30;50.30;;;;;;5073670;28;19917;-71
2022/06/03 14:26:49;;;;;;;;;;;28.30;50.10;;;;;;5071390;28;20287;-70
2022/06/03 14:29:18;;;;;;;;;;;28.20;51.30;;;;;;5073421;28;19912;-67
2022/06/03 14:31:48;;;;;;;;;;;28.20;50.70;;;;;;5073327;28;19909;-66
2022/06/03 14:34:16;;;;;;;;;;;28.20;51.20;;;;;;5073657;28;19908;-67
2022/06/03 14:36:43;;;;;;;;;;;28.10;51.70;;;;;;5073439;28;19909;-64
2022/06/03 14:39:12;;;;;;;;;;;27.90;52.90;;;;;;5073622;28;19908;-63
2022/06/03 14:41:39;;;;;;;;;;;27.40;54.70;;;;;;5070718;28;19924;-60
2022/06/03 14:44:08;;;;;;;;;;;27.20;56.00;;;;;;5073607;28;20044;-67
2022/06/03 14:46:37;;;;;;;;;;;27.00;57.40;;;;;;5073440;28;19909;-62
2022/06/03 14:49:08;;;;;;;;;;;27.10;58.20;;;;;;5073475;28;19970;-70
2022/06/03 14:51:44;;;;;;;;;;;27.00;61.20;;;;;;5072686;28;19919;-59
2022/06/03 14:54:12;;;;;;;;;;;27.00;63.00;;;;;;5072910;28;19908;-59
2022/06/03 14:56:41;;;;;;;;;;;27.10;63.10;;;;;;5072541;28;19919;-59
2022/06/03 14:59:15;;;;;;;;;;;27.10;63.60;;;;;;5072824;28;20376;-60
2022/06/03 15:01:41;;;;;;;;;;;27.10;64.30;;;;;;5072170;28;19909;-65
2022/06/03 15:04:09;;;;;;;;;;;27.00;65.50;;;;;;5072821;28;19938;-63
2022/06/03 15:06:40;;;;;;;;;;;27.00;65.70;;;;;;5072519;28;20418;-64
2022/06/03 15:09:08;;;;;;;;;;;26.90;68.80;;;;;;5073704;28;19908;-66
2022/06/03 15:11:34;;;;;;;;;;;26.80;69.00;;;;;;5073780;28;19908;-64
2022/06/03 15:14:10;;;;;;;;;;;26.70;69.30;;;;;;5072543;28;19916;-65
2022/06/03 15:17:05;;;;;;;;;;;26.60;70.40;;;;;;5073608;28;19909;-66
2022/06/03 15:19:34;;;;;;;;;;;26.40;69.60;;;;;;5066636;28;19920;-65
2022/06/03 15:22:00;;;;;;;;;;;26.20;71.50;;;;;;5072961;28;19921;-63
2022/06/03 15:24:26;;;;;;;;;;;26.20;70.80;;;;;;5072843;28;19916;-66
2022/06/03 15:26:55;;;;;;;;;;;26.20;71.10;;;;;;5073076;28;19935;-66